Time;durP1;ratioP1;P1;durP2;ratioP2;P2;SDS_P1;SDS_P2;PMS_P1;PMS_P2;Temp;Humidity;BMP_temperature;BMP_pressure;BME280_temperature;BME280_humidity;BME280_pressure;Samples;Min_cycle;Max_cycle;Signal;HPM_P1;HPM_P2
2022/09/06 00:01:08;;;;;;;;;;;;;;;19.78;100.00;101594.91;5051018;28;19929;-40
2022/09/06 00:03:36;;;;;;;;;;;;;;;19.74;100.00;101594.75;5051362;28;19924;-34
2022/09/06 00:06:08;;;;;;;;;;;;;;;19.72;100.00;101599.94;5050161;28;19929;-31
2022/09/06 00:08:35;;;;;;;;;;;;;;;19.70;100.00;101596.59;5051252;28;19939;-40
2022/09/06 00:11:03;;;;;;;;;;;;;;;19.69;100.00;101597.78;5051204;28;19943;-31
2022/09/06 00:13:33;;;;;;;;;;;;;;;19.68;100.00;101592.47;5050106;28;19963;-30
2022/09/06 00:16:10;;;;;;;;;;;;;;;19.67;100.00;101599.28;5050995;28;20416;-33
2022/09/06 00:18:38;;;;;;;;;;;;;;;19.66;100.00;101603.28;5050817;28;20394;-33
2022/09/06 00:21:13;;;;;;;;;;;;;;;19.65;100.00;101604.47;5050359;28;19924;-35
2022/09/06 00:23:40;;;;;;;;;;;;;;;19.64;100.00;101597.97;5051082;28;19928;-34
2022/09/06 00:26:08;;;;;;;;;;;;;;;19.63;100.00;101599.13;5050196;28;19936;-34
2022/09/06 00:28:37;;;;;;;;;;;;;;;19.64;100.00;101614.97;5051046;28;19935;-32
2022/09/06 00:31:09;;;;;;;;;;;;;;;19.63;100.00;101601.16;5034788;28;20267;-32
2022/09/06 00:33:36;;;;;;;;;;;;;;;19.65;100.00;101607.28;5050367;28;20019;-32
2022/09/06 00:36:04;;;;;;;;;;;;;;;19.65;100.00;101604.47;5050854;28;20298;-34
2022/09/06 00:38:31;;;;;;;;;;;;;;;19.64;100.00;101606.47;5051012;28;19936;-31
2022/09/06 00:40:59;;;;;;;;;;;;;;;19.64;100.00;101606.47;5050142;28;19929;-32
2022/09/06 00:43:27;;;;;;;;;;;;;;;19.64;100.00;101605.63;5050200;28;19951;-41
2022/09/06 00:45:56;;;;;;;;;;;;;;;19.63;100.00;101610.47;5051177;28;19932;-38
2022/09/06 00:48:24;;;;;;;;;;;;;;;19.63;100.00;101623.78;5050471;28;19929;-35
2022/09/06 00:50:53;;;;;;;;;;;;;;;19.63;100.00;101626.63;5054568;28;20390;-40
2022/09/06 00:53:21;;;;;;;;;;;;;;;19.64;100.00;101633.94;5054146;28;19936;-34
2022/09/06 00:55:48;;;;;;;;;;;;;;;19.64;100.00;101645.28;5053905;28;20416;-33
2022/09/06 00:58:16;;;;;;;;;;;;;;;19.64;100.00;101642.44;5036372;28;20023;-31
2022/09/06 01:00:44;;;;;;;;;;;;;;;19.65;100.00;101650.59;5054503;28;20344;-38
2022/09/06 01:03:14;;;;;;;;;;;;;;;19.68;100.00;101657.59;5053345;28;19933;-34
2022/09/06 01:05:46;;;;;;;;;;;;;;;19.68;100.00;101666.09;5054262;28;19929;-31
2022/09/06 01:08:29;;;;;;;;;;;;;;;19.67;100.00;101653.94;5053322;28;19956;-32
2022/09/06 01:11:04;;;;;;;;;;;;;;;19.65;100.00;101658.25;5054509;28;19932;-40
2022/09/06 01:13:37;;;;;;;;;;;;;;;19.62;100.00;101665.44;5053946;28;19962;-35
2022/09/06 01:16:11;;;;;;;;;;;;;;;19.60;100.00;101650.78;5053683;28;19925;-34
2022/09/06 01:18:49;;;;;;;;;;;;;;;19.59;100.00;101655.63;5053862;28;19988;-38
2022/09/06 01:21:21;;;;;;;;;;;;;;;19.59;100.00;101657.63;5054217;28;19968;-35
2022/09/06 01:24:01;;;;;;;;;;;;;;;19.57;100.00;101646.66;5053250;28;19925;-31
2022/09/06 01:26:43;;;;;;;;;;;;;;;19.53;100.00;101657.00;5054184;28;20328;-41
2022/09/06 01:29:15;;;;;;;;;;;;;;;19.51;100.00;101653.69;5053516;28;19932;-34
2022/09/06 01:31:46;;;;;;;;;;;;;;;19.51;100.00;101650.84;5053606;28;19936;-34
2022/09/06 01:34:20;;;;;;;;;;;;;;;19.53;100.00;101653.34;5053631;28;19944;-37
2022/09/06 01:36:50;;;;;;;;;;;;;;;19.53;100.00;101645.69;5052952;28;19925;-36
2022/09/06 01:39:37;;;;;;;;;;;;;;;19.53;100.00;101644.84;5053341;28;21117;-34
2022/09/06 01:42:07;;;;;;;;;;;;;;;19.52;100.00;101632.69;5053736;28;19931;-39
2022/09/06 01:44:37;;;;;;;;;;;;;;;19.52;100.00;101629.03;5052911;28;20297;-31
2022/09/06 01:47:11;;;;;;;;;;;;;;;19.51;100.00;101625.38;5053816;28;19925;-36
2022/09/06 01:49:45;;;;;;;;;;;;;;;19.51;100.00;101610.38;5053371;28;19932;-33
2022/09/06 01:52:16;;;;;;;;;;;;;;;19.50;100.00;101605.91;5052711;28;19925;-43
2022/09/06 01:54:57;;;;;;;;;;;;;;;19.50;100.00;101591.75;5053381;28;19949;-36
2022/09/06 01:57:31;;;;;;;;;;;;;;;19.48;100.00;101585.56;5051596;28;19925;-31
2022/09/06 02:00:06;;;;;;;;;;;;;;;19.46;100.00;101580.22;5052508;28;20377;-37
2022/09/06 02:02:46;;;;;;;;;;;;;;;19.44;100.00;101595.91;5053122;28;19933;-38
2022/09/06 02:05:17;;;;;;;;;;;;;;;19.42;100.00;101575.59;5052373;28;20006;-41
2022/09/06 02:07:46;;;;;;;;;;;;;;;19.41;100.00;101586.06;5053385;28;19936;-42
2022/09/06 02:10:16;;;;;;;;;;;;;;;19.39;100.00;101582.75;5052838;28;19933;-34
2022/09/06 02:12:46;;;;;;;;;;;;;;;19.39;100.00;101573.44;5048719;28;20420;-36
2022/09/06 02:15:16;;;;;;;;;;;;;;;19.38;100.00;101568.97;5052730;28;19939;-36
2022/09/06 02:17:48;;;;;;;;;;;;;;;19.36;100.00;101566.47;5052838;28;20416;-32
2022/09/06 02:20:17;;;;;;;;;;;;;;;19.35;100.00;101558.34;5052312;28;19940;-31
2022/09/06 02:22:47;;;;;;;;;;;;;;;19.35;100.00;101558.34;5052702;28;19958;-31
2022/09/06 02:25:18;;;;;;;;;;;;;;;19.34;100.00;101551.84;5052664;28;19932;-34
2022/09/06 02:27:46;;;;;;;;;;;;;;;19.34;100.00;101546.19;5051990;28;19943;-37
2022/09/06 02:30:15;;;;;;;;;;;;;;;19.34;100.00;101557.50;5052985;28;19932;-39
2022/09/06 02:32:45;;;;;;;;;;;;;;;19.33;100.00;101561.50;5048024;28;19925;-33
2022/09/06 02:35:15;;;;;;;;;;;;;;;19.32;100.00;101556.19;5052847;28;19929;-33
2022/09/06 02:37:43;;;;;;;;;;;;;;;19.30;100.00;101559.34;5052287;28;19924;-36
2022/09/06 02:40:11;;;;;;;;;;;;;;;19.28;100.00;101548.38;5051645;28;19933;-36
2022/09/06 02:42:39;;;;;;;;;;;;;;;19.30;100.00;101538.72;5052427;28;19929;-34
2022/09/06 02:45:07;;;;;;;;;;;;;;;19.30;100.00;101535.88;5052690;28;19925;-35
2022/09/06 02:47:36;;;;;;;;;;;;;;;19.30;100.00;101536.72;5051207;28;19925;-36
2022/09/06 02:50:04;;;;;;;;;;;;;;;19.28;100.00;101547.53;5052606;28;20255;-36
2022/09/06 02:52:31;;;;;;;;;;;;;;;19.29;100.00;101543.53;5051803;28;19924;-39
2022/09/06 02:54:59;;;;;;;;;;;;;;;19.29;100.00;101546.38;5051777;28;19931;-38
2022/09/06 02:57:26;;;;;;;;;;;;;;;19.28;100.00;101536.22;5051993;28;20286;-40
2022/09/06 02:59:54;;;;;;;;;;;;;;;19.31;100.00;101534.72;5052355;28;19928;-35
2022/09/06 03:02:22;;;;;;;;;;;;;;;19.32;100.00;101525.06;5050941;28;19932;-35
2022/09/06 03:04:51;;;;;;;;;;;;;;;19.32;100.00;101525.88;5052007;28;20246;-40
2022/09/06 03:07:18;;;;;;;;;;;;;;;19.32;100.00;101525.06;5051553;28;19983;-36
2022/09/06 03:09:46;;;;;;;;;;;;;;;19.31;100.00;101529.88;5051514;28;19925;-37
2022/09/06 03:12:13;;;;;;;;;;;;;;;19.32;100.00;101536.38;5050988;28;19948;-34
2022/09/06 03:14:41;;;;;;;;;;;;;;;19.32;100.00;101537.19;5050964;28;19928;-31
2022/09/06 03:17:08;;;;;;;;;;;;;;;19.32;100.00;101540.03;5051242;28;19932;-38
2022/09/06 03:19:36;;;;;;;;;;;;;;;19.34;100.00;101549.00;5051492;28;19977;-34
2022/09/06 03:22:05;;;;;;;;;;;;;;;19.34;100.00;101548.19;5050654;28;19948;-41
2022/09/06 03:24:32;;;;;;;;;;;;;;;19.33;100.00;101555.84;5049890;28;19929;-39
2022/09/06 03:27:00;;;;;;;;;;;;;;;19.33;100.00;101550.19;5050413;28;19929;-34
2022/09/06 03:29:27;;;;;;;;;;;;;;;19.36;100.00;101563.66;5049867;28;19932;-37
2022/09/06 03:31:55;;;;;;;;;;;;;;;19.38;100.00;101558.47;5050685;28;19925;-37
2022/09/06 03:34:23;;;;;;;;;;;;;;;19.38;100.00;101557.66;5050504;28;19928;-38
2022/09/06 03:36:50;;;;;;;;;;;;;;;19.37;100.00;101561.66;5050277;28;19925;-36
2022/09/06 03:39:20;;;;;;;;;;;;;;;19.37;100.00;101556.81;5051030;28;19929;-35
2022/09/06 03:41:47;;;;;;;;;;;;;;;19.37;100.00;101562.50;5033869;28;19925;-33
2022/09/06 03:44:15;;;;;;;;;;;;;;;19.36;100.00;101565.66;5050379;28;19935;-37
2022/09/06 03:46:42;;;;;;;;;;;;;;;19.34;100.00;101574.47;5051489;28;19932;-34
2022/09/06 03:49:10;;;;;;;;;;;;;;;19.35;100.00;101581.81;5050403;28;19936;-37
2022/09/06 03:51:37;;;;;;;;;;;;;;;19.35;100.00;101580.97;5051070;28;20259;-35
2022/09/06 03:54:05;;;;;;;;;;;;;;;19.35;100.00;101578.97;5051341;28;19975;-38
2022/09/06 03:56:34;;;;;;;;;;;;;;;19.35;100.00;101573.31;5051387;28;19933;-39
2022/09/06 03:59:02;;;;;;;;;;;;;;;19.33;100.00;101581.31;5050397;28;19932;-41
2022/09/06 04:01:29;;;;;;;;;;;;;;;19.32;100.00;101579.66;5051091;28;19929;-35
2022/09/06 04:03:57;;;;;;;;;;;;;;;19.32;100.00;101568.34;5051182;28;19936;-37
2022/09/06 04:06:25;;;;;;;;;;;;;;;19.32;100.00;101573.16;5050500;28;19925;-42
2022/09/06 04:08:52;;;;;;;;;;;;;;;19.30;100.00;101573.50;5051072;28;20416;-33
2022/09/06 04:11:20;;;;;;;;;;;;;;;19.30;100.00;101572.66;5050292;28;20023;-40
2022/09/06 04:13:49;;;;;;;;;;;;;;;19.29;100.00;101571.84;5050551;28;19925;-39
2022/09/06 04:16:17;;;;;;;;;;;;;;;19.27;100.00;101575.00;5050505;28;19925;-40
2022/09/06 04:18:45;;;;;;;;;;;;;;;19.25;100.00;101571.69;5050069;28;20047;-34
2022/09/06 04:21:12;;;;;;;;;;;;;;;19.23;100.00;101578.84;5050798;28;20416;-35
2022/09/06 04:23:40;;;;;;;;;;;;;;;19.23;100.00;101576.84;5052161;28;19936;-31
2022/09/06 04:26:07;;;;;;;;;;;;;;;19.22;100.00;101575.19;5054103;28;19935;-39
2022/09/06 04:28:35;;;;;;;;;;;;;;;19.20;100.00;101577.53;5054540;28;19932;-31
2022/09/06 04:31:04;;;;;;;;;;;;;;;19.19;100.00;101567.38;5054699;28;19932;-32
2022/09/06 04:33:33;;;;;;;;;;;;;;;19.20;100.00;101573.88;5054023;28;19931;-32
2022/09/06 04:36:01;;;;;;;;;;;;;;;19.21;100.00;101578.34;5054341;28;19925;-34
2022/09/06 04:38:30;;;;;;;;;;;;;;;19.21;100.00;101569.88;5054972;28;20058;-31
2022/09/06 04:40:58;;;;;;;;;;;;;;;19.22;100.00;101568.69;5053410;28;19935;-31
2022/09/06 04:43:25;;;;;;;;;;;;;;;19.19;100.00;101563.72;5054337;28;20345;-33
2022/09/06 04:45:53;;;;;;;;;;;;;;;19.22;100.00;101571.53;5054263;28;19929;-36
2022/09/06 04:48:22;;;;;;;;;;;;;;;19.23;100.00;101571.19;5053666;28;19932;-31
2022/09/06 04:50:49;;;;;;;;;;;;;;;19.24;100.00;101563.53;5054187;28;19968;-33
2022/09/06 04:53:17;;;;;;;;;;;;;;;19.25;100.00;101570.84;5053804;28;19929;-39
2022/09/06 04:55:45;;;;;;;;;;;;;;;19.23;100.00;101571.19;5053957;28;20393;-31
2022/09/06 04:58:12;;;;;;;;;;;;;;;19.21;100.00;101581.19;5054257;28;20386;-33
2022/09/06 05:00:43;;;;;;;;;;;;;;;19.18;100.00;101582.69;5053301;28;19931;-33
2022/09/06 05:03:10;;;;;;;;;;;;;;;19.15;100.00;101577.75;5053332;28;20007;-34
2022/09/06 05:05:39;;;;;;;;;;;;;;;19.14;100.00;101575.25;5053713;28;19924;-38
2022/09/06 05:08:07;;;;;;;;;;;;;;;19.11;100.00;101578.75;5052693;28;19952;-33
2022/09/06 05:10:35;;;;;;;;;;;;;;;19.11;100.00;101573.09;5053491;28;19932;-40
2022/09/06 05:13:02;;;;;;;;;;;;;;;19.07;100.00;101567.28;5049456;28;19924;-34
2022/09/06 05:15:30;;;;;;;;;;;;;;;19.04;100.00;101567.13;5053173;28;19944;-31
2022/09/06 05:18:02;;;;;;;;;;;;;;;19.02;100.00;101566.63;5053486;28;19928;-33
2022/09/06 05:20:29;;;;;;;;;;;;;;;19.02;100.00;101569.47;5053509;28;19927;-35
2022/09/06 05:22:58;;;;;;;;;;;;;;;19.00;100.00;101566.13;5050910;28;19946;-31
2022/09/06 05:25:25;;;;;;;;;;;;;;;19.01;100.00;101560.16;5054026;28;19925;-32
2022/09/06 05:27:53;;;;;;;;;;;;;;;19.00;100.00;101561.31;5053192;28;19929;-32
2022/09/06 05:30:21;;;;;;;;;;;;;;;18.98;100.00;101554.38;5052952;28;19940;-36
2022/09/06 05:32:48;;;;;;;;;;;;;;;18.96;100.00;101559.53;5052922;28;19932;-42
2022/09/06 05:35:16;;;;;;;;;;;;;;;19.01;100.00;101559.31;5051213;28;19956;-31
2022/09/06 05:37:43;;;;;;;;;;;;;;;19.09;100.00;101559.28;5052432;28;19929;-33
2022/09/06 05:40:14;;;;;;;;;;;;;;;19.20;100.00;101545.56;5052980;28;20136;-31
2022/09/06 05:42:41;;;;;;;;;;;;;;;19.28;100.00;101553.19;5052404;28;20313;-31
2022/09/06 05:45:09;;;;;;;;;;;;;;;19.35;100.00;101536.53;5053665;28;20359;-35
2022/09/06 05:47:37;;;;;;;;;;;;;;;19.39;100.00;101537.47;5053096;28;19936;-39
2022/09/06 05:50:05;;;;;;;;;;;;;;;19.42;100.00;101539.63;5052909;28;20344;-36
2022/09/06 05:52:33;;;;;;;;;;;;;;;19.45;100.00;101530.44;5053409;28;19971;-35
2022/09/06 05:55:01;;;;;;;;;;;;;;;19.50;100.00;101533.13;5053282;28;20389;-30
2022/09/06 05:57:30;;;;;;;;;;;;;;;19.52;100.00;101525.13;5052426;28;19947;-41
2022/09/06 05:59:58;;;;;;;;;;;;;;;19.56;100.00;101528.91;5053140;28;20293;-40
2022/09/06 06:02:25;;;;;;;;;;;;;;;19.60;100.00;101520.53;5052986;28;19932;-39
2022/09/06 06:04:54;;;;;;;;;;;;;;;19.63;100.00;101521.84;5052252;28;19931;-40
2022/09/06 06:07:21;;;;;;;;;;;;;;;19.62;100.00;101521.03;5053223;28;19932;-31
2022/09/06 06:09:49;;;;;;;;;;;;;;;19.61;100.00;101519.38;5052853;28;19940;-33
2022/09/06 06:12:17;;;;;;;;;;;;;;;19.59;100.00;101519.72;5052231;28;19925;-36
2022/09/06 06:14:45;;;;;;;;;;;;;;;19.59;100.00;101528.22;5052902;28;19932;-40
2022/09/06 06:17:13;;;;;;;;;;;;;;;19.58;100.00;101520.09;5052950;28;20382;-44
2022/09/06 06:19:40;;;;;;;;;;;;;;;19.58;100.00;101528.59;5051112;28;19929;-33
2022/09/06 06:22:08;;;;;;;;;;;;;;;19.59;100.00;101531.03;5052973;28;19928;-38
2022/09/06 06:24:36;;;;;;;;;;;;;;;19.62;100.00;101529.53;5052415;28;19925;-38
2022/09/06 06:27:03;;;;;;;;;;;;;;;19.65;100.00;101531.69;5052029;28;19925;-37
2022/09/06 06:29:31;;;;;;;;;;;;;;;19.68;100.00;101530.16;5052420;28;19932;-39
2022/09/06 06:32:00;;;;;;;;;;;;;;;19.72;100.00;101525.47;5052182;28;20321;-35
2022/09/06 06:34:27;;;;;;;;;;;;;;;19.76;100.00;101518.78;5052216;28;19944;-35
2022/09/06 06:36:55;;;;;;;;;;;;;;;19.80;100.00;101514.06;5052632;28;19944;-34
2022/09/06 06:39:23;;;;;;;;;;;;;;;19.86;100.00;101524.00;5051562;28;19929;-37
2022/09/06 06:41:50;;;;;;;;;;;;;;;19.91;100.00;101520.97;5052327;28;19974;-36
2022/09/06 06:44:31;;;;;;;;;;;;;;;20.01;100.00;101527.38;5034168;28;20232;-37
2022/09/06 06:47:01;;;;;;;;;;;;;;;20.12;100.00;101537.13;5051624;28;20361;-35
2022/09/06 06:49:28;;;;;;;;;;;;;;;20.23;100.00;101542.00;5052249;28;19929;-34
2022/09/06 06:51:56;;;;;;;;;;;;;;;20.30;100.00;101539.44;5052243;28;20530;-38
2022/09/06 06:54:24;;;;;;;;;;;;;;;20.44;100.00;101542.00;5051288;28;20444;-35
2022/09/06 06:56:51;;;;;;;;;;;;;;;20.56;100.00;101546.88;5051964;28;19925;-36
2022/09/06 06:59:19;;;;;;;;;;;;;;;20.62;100.00;101554.81;5052560;28;19929;-38
2022/09/06 07:01:48;;;;;;;;;;;;;;;20.69;100.00;101562.75;5051210;28;19925;-37
2022/09/06 07:04:17;;;;;;;;;;;;;;;20.74;100.00;101564.53;5051909;28;19925;-35
2022/09/06 07:06:46;;;;;;;;;;;;;;;20.81;100.00;101553.44;5051583;28;19974;-35
2022/09/06 07:09:33;;;;;;;;;;;;;;;20.90;100.00;101543.66;5037563;28;19948;-37
2022/09/06 07:12:21;;;;;;;;;;;;;;;21.00;100.00;101539.50;5051615;28;19925;-34
2022/09/06 07:14:48;;;;;;;;;;;;;;;21.13;100.00;101523.31;5050916;28;20289;-38
2022/09/06 07:17:16;;;;;;;;;;;;;;;;;;5051470;28;19935;-39
2022/09/06 07:19:45;;;;;;;;;;;;;;;21.77;100.00;101511.19;5036051;28;19924;-36
2022/09/06 07:22:32;;;;;;;;;;;;;;;22.29;100.00;101514.81;5048220;28;20342;-42
2022/09/06 07:25:00;;;;;;;;;;;;;;;22.88;100.00;101530.25;5051584;28;19925;-40
2022/09/06 07:27:28;;;;;;;;;;;;;;;23.40;100.00;101532.75;5051441;28;19932;-35
2022/09/06 07:30:15;;;;;;;;;;;;;;;23.87;100.00;101532.69;5036671;28;19933;-38
2022/09/06 07:32:43;;;;;;;;;;;;;;;24.38;100.00;101532.53;5047641;28;19924;-40
2022/09/06 07:35:12;;;;;;;;;;;;;;;24.80;100.00;101538.25;5050734;28;20301;-37
2022/09/06 07:37:40;;;;;;;;;;;;;;;25.35;100.00;101544.53;5051000;28;20340;-36
2022/09/06 07:40:08;;;;;;;;;;;;;;;25.88;98.19;101545.38;5051352;28;20020;-37
2022/09/06 07:42:36;;;;;;;;;;;;;;;26.12;93.00;101546.91;5050731;28;19932;-36
2022/09/06 07:45:04;;;;;;;;;;;;;;;26.17;89.10;101540.88;5051520;28;19932;-38
2022/09/06 07:47:31;;;;;;;;;;;;;;;26.13;86.77;101542.84;5051076;28;19936;-32
2022/09/06 07:50:20;;;;;;;;;;;;;;;25.94;87.27;101538.09;5050561;28;19928;-39
2022/09/06 07:53:08;;;;;;;;;;;;;;;25.87;85.66;101540.88;5049329;28;19936;-40
2022/09/06 07:55:42;;;;;;;;;;;;;;;25.98;85.29;101538.94;5051440;28;19928;-43
2022/09/06 07:58:09;;;;;;;;;;;;;;;26.30;85.46;101542.28;5049895;28;19948;-38
2022/09/06 08:00:39;;;;;;;;;;;;;;;26.69;82.48;101530.44;5051306;28;19939;-43
2022/09/06 08:03:07;;;;;;;;;;;;;;;27.07;81.06;101524.28;5049956;28;19952;-34
2022/09/06 08:05:36;;;;;;;;;;;;;;;27.51;79.43;101523.41;5050733;28;19935;-37
2022/09/06 08:08:24;;;;;;;;;;;;;;;28.07;73.52;101527.84;5050725;28;19925;-33
2022/09/06 08:11:12;;;;;;;;;;;;;;;28.59;70.61;101519.81;5050225;28;19932;-34
2022/09/06 08:13:41;;;;;;;;;;;;;;;28.79;63.41;101518.22;5051204;28;19925;-33
2022/09/06 08:16:10;;;;;;;;;;;;;;;28.90;63.83;101521.16;5051204;28;19925;-36
2022/09/06 08:18:38;;;;;;;;;;;;;;;29.16;65.23;101522.81;5048931;28;19931;-33
2022/09/06 08:21:07;;;;;;;;;;;;;;;29.47;62.64;101517.06;5051086;28;19933;-39
2022/09/06 08:23:41;;;;;;;;;;;;;;;29.72;59.85;101521.94;5050706;28;19929;-36
2022/09/06 08:26:09;;;;;;;;;;;;;;;29.99;61.73;101514.47;5050469;28;19935;-39
2022/09/06 08:28:37;;;;;;;;;;;;;;;30.35;59.33;101520.09;5050871;28;19932;-35
2022/09/06 08:31:05;;;;;;;;;;;;;;;30.78;59.09;101527.25;5051162;28;19929;-33
2022/09/06 08:33:32;;;;;;;;;;;;;;;31.09;55.42;101524.56;5049896;28;20283;-34
2022/09/06 08:36:00;;;;;;;;;;;;;;;31.42;53.87;101515.22;5050902;28;19936;-41
2022/09/06 08:38:29;;;;;;;;;;;;;;;31.57;51.60;101521.69;5049838;28;20004;-38
2022/09/06 08:41:06;;;;;;;;;;;;;;;31.69;51.94;101518.28;5050911;28;19928;-32
2022/09/06 08:43:34;;;;;;;;;;;;;;;31.92;50.01;101516.78;5050776;28;20032;-33
2022/09/06 08:46:03;;;;;;;;;;;;;;;32.01;47.65;101517.06;5050156;28;19929;-34
2022/09/06 08:48:33;;;;;;;;;;;;;;;32.11;48.01;101510.34;5050544;28;20319;-40
2022/09/06 08:51:08;;;;;;;;;;;;;;;32.40;48.09;101499.25;5050829;28;19928;-33
2022/09/06 08:53:40;;;;;;;;;;;;;;;32.76;44.71;101505.38;5050178;28;19925;-36
2022/09/06 08:56:13;;;;;;;;;;;;;;;32.69;44.66;101499.66;5050504;28;19929;-33
2022/09/06 08:58:57;;;;;;;;;;;;;;;32.70;47.87;101495.50;5050686;28;19925;-33
2022/09/06 09:01:32;;;;;;;;;;;;;;;32.59;45.25;101486.16;5046962;28;19928;-33
2022/09/06 09:04:02;;;;;;;;;;;;;;;32.07;42.87;101492.25;5050476;28;19931;-33
2022/09/06 09:06:31;;;;;;;;;;;;;;;31.70;47.13;101485.28;5050028;28;20382;-42
2022/09/06 09:09:04;;;;;;;;;;;;;;;31.56;43.73;101482.53;5050633;28;19925;-36
2022/09/06 09:11:32;;;;;;;;;;;;;;;31.46;45.64;101480.56;5053087;28;19975;-33
2022/09/06 09:14:03;;;;;;;;;;;;;;;31.32;43.22;101480.72;5053260;28;19950;-33
2022/09/06 09:16:31;;;;;;;;;;;;;;;31.45;44.48;101485.50;5054111;28;19940;-36
2022/09/06 09:19:00;;;;;;;;;;;;;;;31.50;46.86;101492.88;5054318;28;20441;-37
2022/09/06 09:21:28;;;;;;;;;;;;;;;31.31;45.93;101482.78;5053127;28;19925;-40
2022/09/06 09:23:58;;;;;;;;;;;;;;;30.96;45.24;101480.19;5053835;28;19957;-32
2022/09/06 09:26:30;;;;;;;;;;;;;;;30.50;48.13;101481.31;5053710;28;19929;-37
2022/09/06 09:29:08;;;;;;;;;;;;;;;29.80;46.18;101471.75;5053003;28;19925;-34
2022/09/06 09:31:38;;;;;;;;;;;;;;;29.27;50.39;101471.88;5069373;28;19933;-33
2022/09/06 09:34:10;;;;;;;;;;;;;;;29.20;52.14;101466.13;5053719;28;20306;-31
2022/09/06 09:36:38;;;;;;;;;;;;;;;29.01;50.77;101471.06;5052787;28;19929;-37
2022/09/06 09:39:09;;;;;;;;;;;;;;;28.58;50.21;101473.06;5053595;28;19960;-30
2022/09/06 09:41:40;;;;;;;;;;;;;;;28.24;51.74;101477.50;5050455;28;19928;-30
2022/09/06 09:44:09;;;;;;;;;;;;;;;28.30;55.47;101476.72;5053821;28;19925;-36
2022/09/06 09:46:38;;;;;;;;;;;;;;;28.67;53.17;101479.22;5052728;28;19929;-40
2022/09/06 09:49:08;;;;;;;;;;;;;;;28.85;50.36;101479.28;5052719;28;19965;-38
2022/09/06 09:51:36;;;;;;;;;;;;;;;28.80;51.43;101469.00;5053234;28;19929;-31
2022/09/06 09:54:05;;;;;;;;;;;;;;;28.90;49.71;101475.19;5053579;28;20019;-31
2022/09/06 09:56:39;;;;;;;;;;;;;;;28.94;48.68;101473.13;5052386;28;19931;-38
2022/09/06 09:59:15;;;;;;;;;;;;;;;28.97;49.35;101476.00;5053532;28;19925;-33
2022/09/06 10:01:42;;;;;;;;;;;;;;;28.93;47.40;101468.63;5052810;28;19925;-32
2022/09/06 10:04:11;;;;;;;;;;;;;;;29.04;49.25;101464.50;5052616;28;19936;-32
2022/09/06 10:07:13;;;;;;;;;;;;;;;29.24;50.73;101459.13;5052749;28;19936;-37
2022/09/06 10:09:41;;;;;;;;;;;;;;;29.63;49.93;101466.88;5053079;28;19924;-33
2022/09/06 10:12:13;;;;;;;;;;;;;;;29.75;44.39;101475.91;5051761;28;20330;-34
2022/09/06 10:14:41;;;;;;;;;;;;;;;29.71;45.56;101469.34;5053169;28;19991;-38
2022/09/06 10:17:17;;;;;;;;;;;;;;;29.43;43.96;101458.72;5051847;28;19939;-31
2022/09/06 10:19:46;;;;;;;;;;;;;;;29.31;46.03;101462.00;5053034;28;19932;-31
2022/09/06 10:22:26;;;;;;;;;;;;;;;29.05;45.47;101466.13;5051799;28;19929;-34
2022/09/06 10:25:14;;;;;;;;;;;;;;;29.08;48.76;101468.19;5051882;28;19928;-30
2022/09/06 10:27:51;;;;;;;;;;;;;;;29.37;48.75;101453.78;5052547;28;19936;-31
2022/09/06 10:30:43;;;;;;;;;;;;;;;29.89;43.95;101456.94;5053106;28;20287;-39
2022/09/06 10:33:18;;;;;;;;;;;;;;;30.19;44.41;101456.41;5051053;28;19928;-39
2022/09/06 10:35:46;;;;;;;;;;;;;;;30.13;42.35;101461.78;5052702;28;20407;-30
2022/09/06 10:38:24;;;;;;;;;;;;;;;30.06;39.93;101468.41;5050790;28;19925;-36
2022/09/06 10:40:56;;;;;;;;;;;;;;;30.03;41.65;101495.13;5052597;28;19924;-35
2022/09/06 10:43:26;;;;;;;;;;;;;;;29.74;43.53;101503.03;5051765;28;19928;-32
2022/09/06 10:45:57;;;;;;;;;;;;;;;29.55;44.01;101499.81;5051877;28;19932;-37
2022/09/06 10:48:28;;;;;;;;;;;;;;;29.36;44.18;101504.72;5051987;28;19933;-35
2022/09/06 10:50:58;;;;;;;;;;;;;;;28.89;45.24;101500.22;5052396;28;19932;-36
2022/09/06 10:53:32;;;;;;;;;;;;;;;28.53;47.54;101501.38;5051171;28;20301;-37
2022/09/06 10:56:04;;;;;;;;;;;;;;;28.25;50.69;101502.09;5052318;28;20469;-43
2022/09/06 10:58:36;;;;;;;;;;;;;;;28.22;52.12;101509.47;5052377;28;19935;-43
2022/09/06 11:01:29;;;;;;;;;;;;;;;28.38;54.88;101509.94;5051477;28;19924;-36
2022/09/06 11:03:59;;;;;;;;;;;;;;;28.82;54.06;101505.13;5051729;28;20345;-40
2022/09/06 11:06:36;;;;;;;;;;;;;;;29.06;52.41;101507.19;5051245;28;19976;-40
2022/09/06 11:09:09;;;;;;;;;;;;;;;29.13;51.42;101512.97;5052022;28;19936;-35
2022/09/06 11:11:41;;;;;;;;;;;;;;;28.75;52.53;101508.81;5052280;28;19929;-40
2022/09/06 11:14:12;;;;;;;;;;;;;;;28.36;54.70;101518.16;5050890;28;19925;-35
2022/09/06 11:16:43;;;;;;;;;;;;;;;28.33;56.75;101516.09;5051925;28;19924;-35
2022/09/06 11:19:16;;;;;;;;;;;;;;;28.29;56.19;101521.00;5051713;28;19929;-37
2022/09/06 11:21:53;;;;;;;;;;;;;;;28.22;58.06;101525.88;5051110;28;19924;-33
2022/09/06 11:24:29;;;;;;;;;;;;;;;28.23;59.12;101533.25;5051479;28;19924;-35
2022/09/06 11:27:00;;;;;;;;;;;;;;;27.83;61.37;101540.00;5051830;28;19929;-32
2022/09/06 11:29:30;;;;;;;;;;;;;;;27.43;64.07;101544.63;5050413;28;20302;-33
2022/09/06 11:32:00;;;;;;;;;;;;;;;27.12;66.41;101553.81;5051709;28;20412;-33
2022/09/06 11:34:51;;;;;;;;;;;;;;;26.85;67.45;101550.22;5050063;28;20291;-41
2022/09/06 11:37:24;;;;;;;;;;;;;;;26.84;68.27;101555.13;5051530;28;19935;-32
2022/09/06 11:40:02;;;;;;;;;;;;;;;26.94;67.25;101537.28;5051199;28;19928;-34
2022/09/06 11:43:17;;;;;;;;;;;;;;;26.85;67.19;101539.59;5050729;28;19982;-34
2022/09/06 11:45:48;;;;;;;;;;;;;;;26.92;67.79;101536.81;5026864;28;19925;-38
2022/09/06 11:48:36;;;;;;;;;;;;;;;27.10;67.67;101540.69;5050863;28;19929;-34
2022/09/06 11:51:06;;;;;;;;;;;;;;;26.95;67.00;101544.66;5049483;28;20381;-35
2022/09/06 11:53:35;;;;;;;;;;;;;;;26.83;68.06;101539.16;5051317;28;19932;-32
2022/09/06 11:56:11;;;;;;;;;;;;;;;26.86;67.05;101529.78;5062591;28;20011;-33
2022/09/06 11:58:47;;;;;;;;;;;;;;;27.06;64.58;101516.91;5051210;28;19931;-33
2022/09/06 12:01:36;;;;;;;;;;;;;;;27.39;63.55;101517.97;5048129;28;19929;-35
2022/09/06 12:04:08;;;;;;;;;;;;;;;27.75;60.48;101510.47;5050506;28;19940;-40
2022/09/06 12:06:38;;;;;;;;;;;;;;;28.02;59.86;101508.94;5050910;28;19954;-40
2022/09/06 12:09:25;;;;;;;;;;;;;;;28.35;60.18;101513.63;5051226;28;19929;-35
2022/09/06 12:11:54;;;;;;;;;;;;;;;28.72;54.46;101521.94;5051228;28;19925;-32
2022/09/06 12:14:30;;;;;;;;;;;;;;;28.75;55.41;101509.63;5050960;28;20309;-37
2022/09/06 12:17:24;;;;;;;;;;;;;;;28.73;56.24;101511.25;5050316;28;19925;-34
2022/09/06 12:19:55;;;;;;;;;;;;;;;28.67;56.43;101512.88;5036549;28;19929;-36
2022/09/06 12:22:41;;;;;;;;;;;;;;;28.50;57.25;101520.25;5047322;28;19933;-32
2022/09/06 12:25:15;;;;;;;;;;;;;;;28.34;59.42;101523.47;5036384;28;19940;-34
2022/09/06 12:27:50;;;;;;;;;;;;;;;28.12;61.43;101524.59;5051180;28;20049;-35
2022/09/06 12:30:30;;;;;;;;;;;;;;;27.88;62.22;101528.16;5051002;28;19936;-33
2022/09/06 12:32:58;;;;;;;;;;;;;;;27.89;63.52;101529.81;5050965;28;19925;-32
2022/09/06 12:35:29;;;;;;;;;;;;;;;27.83;63.27;101517.88;5050768;28;20394;-43
2022/09/06 12:38:22;;;;;;;;;;;;;;;27.78;62.37;101513.34;5050050;28;19936;-33
2022/09/06 12:40:55;;;;;;;;;;;;;;;27.93;63.18;101519.16;5050914;28;19925;-35
2022/09/06 12:43:22;;;;;;;;;;;;;;;27.96;61.06;101506.91;5050828;28;19936;-33
2022/09/06 12:45:51;;;;;;;;;;;;;;;28.08;60.40;101512.25;5052982;28;19928;-33
2022/09/06 12:48:25;;;;;;;;;;;;;;;27.85;60.53;101523.22;5054328;28;19924;-34
2022/09/06 12:51:01;;;;;;;;;;;;;;;27.47;62.30;101519.69;5036984;28;20353;-34